Jsp Bora — V2CQ4 — position and weather

sailwx.info

Track history (hours):
 
Tides and Currents Weather Stations Pressure Air Temp Water Temp Dewpoint Dewpoint Depression Visibility Wind Speed Wind Dir Waves Ship Positions

Jsp Bora

Last reported at 2017-May-25 18:52 UTC. Time now 2017-May-27 19:25 UTC.
Position N 35°44' W 000°38'.

Length 148 m; draft 8.5 m.

Type: Ship (hazmat cat A). MMSI: 305079000.

Date/timePositionNaut miles runAvg speedWind from/ knotsBaromVisibWave heightAir tempDewpointWater temp
2017-May-25 18:52N 35°44' W 000°38'0 0.0
2017-May-25 17:40N 35°44' W 000°38'0 0.1
2017-May-25 17:22N 35°44' W 000°38'16 0.6
2017-May-24 15:46N 35°59' W 000°31'9312.0
2017-May-24 07:59N 37°29' E 000°02'715.1
2017-May-24 07:30N 37°36' E 000°05'1013.9
2017-May-24 06:49N 37°45' E 000°09'412.7
2017-May-24 06:28N 37°49' E 000°11'612.7
2017-May-24 06:00N 37°55' E 000°13'612.6
2017-May-24 05:30N 38°01' E 000°15'612.5
2017-May-24 05:00N 38°07' E 000°17'2512.2
2017-May-24 02:58N 38°30' E 000°26'6011.4
2017-May-23 21:43N 39°22' W 000°12'311.7
2017-May-23 21:30N 39°24' W 000°15'4 8.2
2017-May-23 20:59N 39°26' W 000°20'0 0.4
2017-May-23 20:29N 39°26' W 000°20'0 0.0
2017-May-23 19:47N 39°26' W 000°20'0 0.0
2017-May-23 18:14N 39°26' W 000°20'0 0.0
2017-May-23 17:56N 39°26' W 000°20'0 0.0
2017-May-23 17:14N 39°26' W 000°20'0 0.0
2017-May-23 16:59N 39°26' W 000°20'0 0.0
2017-May-23 16:29N 39°26' W 000°20'0 0.0
2017-May-23 15:59N 39°26' W 000°20'0 0.0
2017-May-23 15:26N 39°26' W 000°20'0 0.0
2017-May-23 14:59N 39°26' W 000°20'0 0.0
2017-May-23 14:29N 39°26' W 000°20'0 0.0
2017-May-23 13:14N 39°26' W 000°20'0 0.0
2017-May-23 12:59N 39°26' W 000°20'0 0.0
2017-May-23 12:26N 39°26' W 000°20'0 0.0
2017-May-23 11:54N 39°26' W 000°20'0 0.8
2017-May-23 11:30N 39°26' W 000°19'2 4.9
2017-May-23 11:00N 39°26' W 000°16'0 0.1
2017-May-23 10:30N 39°26' W 000°16'1 2.4
2017-May-23 09:56N 39°26' W 000°14'2 4.7
2017-May-23 09:31N 39°27' W 000°12'1 1.1
2017-May-23 09:00N 39°28' W 000°12'713.6
2017-May-23 08:30N 39°33' W 000°06'3612.2
2017-May-23 05:31N 39°58' E 000°28'011.5
2017-May-23 05:30N 39°58' E 000°29'611.8
2017-May-23 05:00N 40°03' E 000°34'611.9
2017-May-23 04:30N 40°07' E 000°39'611.8
2017-May-23 04:00N 40°11' E 000°44'611.7
2017-May-23 03:30N 40°15' E 000°50'611.3
2017-May-23 03:00N 40°19' E 000°56'611.6
2017-May-23 02:30N 40°23' E 001°01'611.7
2017-May-23 02:00N 40°27' E 001°06'611.7
2017-May-23 01:30N 40°30' E 001°13'611.5
2017-May-23 01:00N 40°33' E 001°20'611.6
2017-May-23 00:30N 40°35' E 001°26'611.6
2017-May-23 00:00N 40°38' E 001°33'611.6
2017-May-22 23:30N 40°43' E 001°38'611.5
2017-May-22 23:00N 40°47' E 001°42'611.6
2017-May-22 22:30N 40°52' E 001°47'611.8
2017-May-22 22:00N 40°57' E 001°51'611.8
2017-May-22 21:30N 41°02' E 001°56'611.9
2017-May-22 21:00N 41°06' E 002°01'612.2
2017-May-22 20:30N 41°11' E 002°05'612.2
2017-May-22 20:00N 41°16' E 002°10'3 5.3
2017-May-22 19:30N 41°19' E 002°09'0 0.2
2017-May-22 18:59N 41°19' E 002°09'0 0.0
2017-May-22 18:29N 41°19' E 002°09'0 0.0
2017-May-22 17:59N 41°19' E 002°09'0 0.0
2017-May-22 16:31N 41°19' E 002°09'0 0.1
2017-May-22 16:19N 41°19' E 002°09'0 0.0
2017-May-22 15:49N 41°19' E 002°09'0 0.0
2017-May-22 15:25N 41°19' E 002°09'0 0.1
2017-May-22 15:00N 41°19' E 002°09'0 0.0
2017-May-22 13:56N 41°19' E 002°09'0 0.0
2017-May-22 13:19N 41°19' E 002°09'0 0.1
2017-May-22 12:54N 41°19' E 002°09'0 0.0
2017-May-22 06:13N 41°19' E 002°09'0 0.0
2017-May-22 05:43N 41°19' E 002°09'0 0.0
2017-May-22 05:25N 41°19' E 002°09'0 0.0
2017-May-22 01:43N 41°19' E 002°09'0 0.0
2017-May-22 01:30N 41°19' E 002°09'2 3.1
2017-May-22 01:00N 41°18' E 002°11'4 7.2
2017-May-22 00:30N 41°15' E 002°14'1 1.9
2017-May-22 00:00N 41°14' E 002°14'0 0.2
2017-May-21 23:30N 41°14' E 002°14'0 0.2
2017-May-21 23:00N 41°14' E 002°14'0 0.3
2017-May-21 22:30N 41°14' E 002°14'0 0.6
2017-May-21 22:00N 41°14' E 002°14'0 0.5
2017-May-21 21:30N 41°14' E 002°13'0 0.8
2017-May-21 21:00N 41°14' E 002°13'0 1.0
2017-May-21 20:30N 41°14' E 002°12'4 8.1
2017-May-21 20:00N 41°11' E 002°09'510.1
2017-May-21 19:30N 41°06' E 002°06'510.0
2017-May-21 19:00N 41°02' E 002°03'510.0
2017-May-21 18:30N 40°57' E 002°01'610.1
2017-May-21 17:52N 40°51' E 001°58'410.1
2017-May-21 17:29N 40°48' E 001°56'5 9.9
2017-May-21 17:00N 40°43' E 001°54'5 9.7
2017-May-21 16:30N 40°39' E 001°51'5 9.9
2017-May-21 16:00N 40°34' E 001°49'5 9.9
2017-May-21 15:30N 40°29' E 001°47'5 9.9
2017-May-21 15:00N 40°25' E 001°45'510.0
2017-May-21 14:30N 40°20' E 001°42'1010.1
2017-May-21 13:30N 40°11' E 001°38'510.2
2017-May-21 13:00N 40°06' E 001°35'510.9
2017-May-21 12:30N 40°01' E 001°33'510.9
2017-May-21 12:00N 39°56' E 001°30'510.8
2017-May-21 11:30N 39°51' E 001°27'611.2
2017-May-21 11:00N 39°45' E 001°25'911.0
2017-May-21 10:09N 39°37' E 001°21'210.9
2017-May-21 09:59N 39°35' E 001°20'510.8
2017-May-21 09:30N 39°30' E 001°17'710.7
2017-May-21 08:53N 39°24' E 001°14'1611.3
2017-May-21 07:27N 39°09' E 001°07'612.4
2017-May-21 07:00N 39°04' E 001°05'813.2
2017-May-21 06:23N 38°56' E 001°01'1213.0
2017-May-21 05:29N 38°45' E 000°55'812.9
2017-May-21 04:54N 38°38' E 000°52'512.8
2017-May-21 04:30N 38°33' E 000°49'712.8
2017-May-21 03:56N 38°27' E 000°46'1312.8
2017-May-21 02:54N 38°14' E 000°40'613.0
2017-May-21 02:28N 38°09' E 000°37'613.0
2017-May-21 01:58N 38°03' E 000°34'611.9
2017-May-21 01:30N 37°58' E 000°32'611.3
2017-May-21 01:00N 37°52' E 000°29'611.8
2017-May-21 00:30N 37°47' E 000°26'611.9
2017-May-21 00:00N 37°41' E 000°24'611.8
2017-May-20 23:30N 37°36' E 000°21'611.7
2017-May-20 23:00N 37°30' E 000°18'611.6
2017-May-20 22:30N 37°25' E 000°16'611.9
2017-May-20 22:00N 37°19' E 000°13'712.1
2017-May-20 21:28N 37°13' E 000°10'612.1
2017-May-20 21:00N 37°08' E 000°07'612.0
2017-May-20 20:30N 37°03' E 000°05'612.0
2017-May-20 20:00N 36°57' E 000°02'612.3
2017-May-20 19:30N 36°51' W 000°01'712.7
2017-May-20 18:59N 36°45' W 000°03'612.5
2017-May-20 18:30N 36°39' W 000°05'712.9
2017-May-20 18:00N 36°33' W 000°09'613.2
2017-May-20 17:30N 36°27' W 000°12'713.1
2017-May-20 17:00N 36°21' W 000°15'913.1
2017-May-20 16:18N 36°13' W 000°20'612.8
2017-May-20 15:52N 36°08' W 000°22'912.4
2017-May-20 15:10N 35°60' W 000°27'312.4
2017-May-20 14:56N 35°57' W 000°29'1312.6
2017-May-20 13:55N 35°46' W 000°36'4 8.3
2017-May-20 13:27N 35°43' W 000°38'0 0.1
2017-May-20 12:52N 35°43' W 000°38'0 0.0
2017-May-20 12:10N 35°43' W 000°38'0 0.0
2017-May-20 11:58N 35°43' W 000°38'0 0.0
2017-May-20 11:28N 35°43' W 000°38'0 0.0
2017-May-18 17:34N 35°43' W 000°38'0 0.0
2017-May-18 17:16N 35°43' W 000°38'0 0.0
2017-May-18 15:58N 35°43' W 000°38'0 0.0
2017-May-17 18:04N 35°43' W 000°38'0 0.0
2017-May-17 17:56N 35°43' W 000°38'1 0.0
2017-May-15 18:57N 35°44' W 000°38'  
Track history (hours):
 
Tides and Currents Weather Stations Pressure Air Temp Water Temp Dewpoint Dewpoint Depression Visibility Wind Speed Wind Dir Waves Ship Positions

Jsp Bora

Last reported at 2017-May-25 18:52 UTC. Time now 2017-May-27 19:25 UTC.
Position N 35°44' W 000°38'.

Length 148 m; draft 8.5 m.

Type: Ship (hazmat cat A). MMSI: 305079000.

Date/timePositionNaut miles runAvg speedWind from/ knotsBaromVisibWave heightAir tempDewpointWater temp
2017-May-25 18:52N 35°44' W 000°38'0 0.0
2017-May-25 17:40N 35°44' W 000°38'0 0.1
2017-May-25 17:22N 35°44' W 000°38'16 0.6
2017-May-24 15:46N 35°59' W 000°31'9312.0
2017-May-24 07:59N 37°29' E 000°02'715.1
2017-May-24 07:30N 37°36' E 000°05'1013.9
2017-May-24 06:49N 37°45' E 000°09'412.7
2017-May-24 06:28N 37°49' E 000°11'612.7
2017-May-24 06:00N 37°55' E 000°13'612.6
2017-May-24 05:30N 38°01' E 000°15'612.5
2017-May-24 05:00N 38°07' E 000°17'2512.2
2017-May-24 02:58N 38°30' E 000°26'6011.4
2017-May-23 21:43N 39°22' W 000°12'311.7
2017-May-23 21:30N 39°24' W 000°15'4 8.2
2017-May-23 20:59N 39°26' W 000°20'0 0.4
2017-May-23 20:29N 39°26' W 000°20'0 0.0
2017-May-23 19:47N 39°26' W 000°20'0 0.0
2017-May-23 18:14N 39°26' W 000°20'0 0.0
2017-May-23 17:56N 39°26' W 000°20'0 0.0
2017-May-23 17:14N 39°26' W 000°20'0 0.0
2017-May-23 16:59N 39°26' W 000°20'0 0.0
2017-May-23 16:29N 39°26' W 000°20'0 0.0
2017-May-23 15:59N 39°26' W 000°20'0 0.0
2017-May-23 15:26N 39°26' W 000°20'0 0.0
2017-May-23 14:59N 39°26' W 000°20'0 0.0
2017-May-23 14:29N 39°26' W 000°20'0 0.0
2017-May-23 13:14N 39°26' W 000°20'0 0.0
2017-May-23 12:59N 39°26' W 000°20'0 0.0
2017-May-23 12:26N 39°26' W 000°20'0 0.0
2017-May-23 11:54N 39°26' W 000°20'0 0.8
2017-May-23 11:30N 39°26' W 000°19'2 4.9
2017-May-23 11:00N 39°26' W 000°16'0 0.1
2017-May-23 10:30N 39°26' W 000°16'1 2.4
2017-May-23 09:56N 39°26' W 000°14'2 4.7
2017-May-23 09:31N 39°27' W 000°12'1 1.1
2017-May-23 09:00N 39°28' W 000°12'713.6
2017-May-23 08:30N 39°33' W 000°06'3612.2
2017-May-23 05:31N 39°58' E 000°28'011.5
2017-May-23 05:30N 39°58' E 000°29'611.8
2017-May-23 05:00N 40°03' E 000°34'611.9
2017-May-23 04:30N 40°07' E 000°39'611.8
2017-May-23 04:00N 40°11' E 000°44'611.7
2017-May-23 03:30N 40°15' E 000°50'611.3
2017-May-23 03:00N 40°19' E 000°56'611.6
2017-May-23 02:30N 40°23' E 001°01'611.7
2017-May-23 02:00N 40°27' E 001°06'611.7
2017-May-23 01:30N 40°30' E 001°13'611.5
2017-May-23 01:00N 40°33' E 001°20'611.6
2017-May-23 00:30N 40°35' E 001°26'611.6
2017-May-23 00:00N 40°38' E 001°33'611.6
2017-May-22 23:30N 40°43' E 001°38'611.5
2017-May-22 23:00N 40°47' E 001°42'611.6
2017-May-22 22:30N 40°52' E 001°47'611.8
2017-May-22 22:00N 40°57' E 001°51'611.8
2017-May-22 21:30N 41°02' E 001°56'611.9
2017-May-22 21:00N 41°06' E 002°01'612.2
2017-May-22 20:30N 41°11' E 002°05'612.2
2017-May-22 20:00N 41°16' E 002°10'3 5.3
2017-May-22 19:30N 41°19' E 002°09'0 0.2
2017-May-22 18:59N 41°19' E 002°09'0 0.0
2017-May-22 18:29N 41°19' E 002°09'0 0.0
2017-May-22 17:59N 41°19' E 002°09'0 0.0
2017-May-22 16:31N 41°19' E 002°09'0 0.1
2017-May-22 16:19N 41°19' E 002°09'0 0.0
2017-May-22 15:49N 41°19' E 002°09'0 0.0
2017-May-22 15:25N 41°19' E 002°09'0 0.1
2017-May-22 15:00N 41°19' E 002°09'0 0.0
2017-May-22 13:56N 41°19' E 002°09'0 0.0
2017-May-22 13:19N 41°19' E 002°09'0 0.1
2017-May-22 12:54N 41°19' E 002°09'0 0.0
2017-May-22 06:13N 41°19' E 002°09'0 0.0
2017-May-22 05:43N 41°19' E 002°09'0 0.0
2017-May-22 05:25N 41°19' E 002°09'0 0.0
2017-May-22 01:43N 41°19' E 002°09'0 0.0
2017-May-22 01:30N 41°19' E 002°09'2 3.1
2017-May-22 01:00N 41°18' E 002°11'4 7.2
2017-May-22 00:30N 41°15' E 002°14'1 1.9
2017-May-22 00:00N 41°14' E 002°14'0 0.2
2017-May-21 23:30N 41°14' E 002°14'0 0.2
2017-May-21 23:00N 41°14' E 002°14'0 0.3
2017-May-21 22:30N 41°14' E 002°14'0 0.6
2017-May-21 22:00N 41°14' E 002°14'0 0.5
2017-May-21 21:30N 41°14' E 002°13'0 0.8
2017-May-21 21:00N 41°14' E 002°13'0 1.0
2017-May-21 20:30N 41°14' E 002°12'4 8.1
2017-May-21 20:00N 41°11' E 002°09'510.1
2017-May-21 19:30N 41°06' E 002°06'510.0
2017-May-21 19:00N 41°02' E 002°03'510.0
2017-May-21 18:30N 40°57' E 002°01'610.1
2017-May-21 17:52N 40°51' E 001°58'410.1
2017-May-21 17:29N 40°48' E 001°56'5 9.9
2017-May-21 17:00N 40°43' E 001°54'5 9.7
2017-May-21 16:30N 40°39' E 001°51'5 9.9
2017-May-21 16:00N 40°34' E 001°49'5 9.9
2017-May-21 15:30N 40°29' E 001°47'5 9.9
2017-May-21 15:00N 40°25' E 001°45'510.0
2017-May-21 14:30N 40°20' E 001°42'1010.1
2017-May-21 13:30N 40°11' E 001°38'510.2
2017-May-21 13:00N 40°06' E 001°35'510.9
2017-May-21 12:30N 40°01' E 001°33'510.9
2017-May-21 12:00N 39°56' E 001°30'510.8
2017-May-21 11:30N 39°51' E 001°27'611.2
2017-May-21 11:00N 39°45' E 001°25'911.0
2017-May-21 10:09N 39°37' E 001°21'210.9
2017-May-21 09:59N 39°35' E 001°20'510.8
2017-May-21 09:30N 39°30' E 001°17'710.7
2017-May-21 08:53N 39°24' E 001°14'1611.3
2017-May-21 07:27N 39°09' E 001°07'612.4
2017-May-21 07:00N 39°04' E 001°05'813.2
2017-May-21 06:23N 38°56' E 001°01'1213.0
2017-May-21 05:29N 38°45' E 000°55'812.9
2017-May-21 04:54N 38°38' E 000°52'512.8
2017-May-21 04:30N 38°33' E 000°49'712.8
2017-May-21 03:56N 38°27' E 000°46'1312.8
2017-May-21 02:54N 38°14' E 000°40'613.0
2017-May-21 02:28N 38°09' E 000°37'613.0
2017-May-21 01:58N 38°03' E 000°34'611.9
2017-May-21 01:30N 37°58' E 000°32'611.3
2017-May-21 01:00N 37°52' E 000°29'611.8
2017-May-21 00:30N 37°47' E 000°26'611.9
2017-May-21 00:00N 37°41' E 000°24'611.8
2017-May-20 23:30N 37°36' E 000°21'611.7
2017-May-20 23:00N 37°30' E 000°18'611.6
2017-May-20 22:30N 37°25' E 000°16'611.9
2017-May-20 22:00N 37°19' E 000°13'712.1
2017-May-20 21:28N 37°13' E 000°10'612.1
2017-May-20 21:00N 37°08' E 000°07'612.0
2017-May-20 20:30N 37°03' E 000°05'612.0
2017-May-20 20:00N 36°57' E 000°02'612.3
2017-May-20 19:30N 36°51' W 000°01'712.7
2017-May-20 18:59N 36°45' W 000°03'612.5
2017-May-20 18:30N 36°39' W 000°05'712.9
2017-May-20 18:00N 36°33' W 000°09'613.2
2017-May-20 17:30N 36°27' W 000°12'713.1
2017-May-20 17:00N 36°21' W 000°15'913.1
2017-May-20 16:18N 36°13' W 000°20'612.8
2017-May-20 15:52N 36°08' W 000°22'912.4
2017-May-20 15:10N 35°60' W 000°27'312.4
2017-May-20 14:56N 35°57' W 000°29'1312.6
2017-May-20 13:55N 35°46' W 000°36'4 8.3
2017-May-20 13:27N 35°43' W 000°38'0 0.1
2017-May-20 12:52N 35°43' W 000°38'0 0.0
2017-May-20 12:10N 35°43' W 000°38'0 0.0
2017-May-20 11:58N 35°43' W 000°38'0 0.0
2017-May-20 11:28N 35°43' W 000°38'0 0.0
2017-May-18 17:34N 35°43' W 000°38'0 0.0
2017-May-18 17:16N 35°43' W 000°38'0 0.0
2017-May-18 15:58N 35°43' W 000°38'0 0.0
2017-May-17 18:04N 35°43' W 000°38'0 0.0
2017-May-17 17:56N 35°43' W 000°38'1 0.0
2017-May-15 18:57N 35°44' W 000°38'  

Dump ship's entire track history